Time;durP1;ratioP1;P1;durP2;ratioP2;P2;SDS_P1;SDS_P2;PMS_P1;PMS_P2;Temp;Humidity;BMP_temperature;BMP_pressure;BME280_temperature;BME280_humidity;BME280_pressure;Samples;Min_cycle;Max_cycle;Signal;HPM_P1;HPM_P2
2023/09/09 00:00:54;;;;;;;0.63;0.40;;;20.90;46.30;;;;;;6270666;22;20181;-86
2023/09/09 00:03:24;;;;;;;0.43;0.40;;;20.80;46.30;;;;;;6273143;22;20193;-87
2023/09/09 00:05:55;;;;;;;0.20;0.20;;;20.80;46.30;;;;;;6273824;22;20170;-86
2023/09/09 00:08:24;;;;;;;0.50;0.50;;;20.80;46.30;;;;;;6274961;22;20171;-87
2023/09/09 00:10:53;;;;;;;0.30;0.30;;;20.80;46.40;;;;;;6274825;22;20169;-87
2023/09/09 00:13:21;;;;;;;0.53;0.50;;;20.80;46.50;;;;;;6274105;22;20166;-87
2023/09/09 00:15:54;;;;;;;0.63;0.43;;;20.70;46.60;;;;;;6274539;22;20173;-87
2023/09/09 00:18:23;;;;;;;0.30;0.30;;;20.70;46.70;;;;;;6273714;22;20228;-88
2023/09/09 00:20:52;;;;;;;2.47;0.60;;;20.60;46.70;;;;;;6273993;22;20173;-88
2023/09/09 00:23:22;;;;;;;0.30;0.30;;;20.60;46.80;;;;;;6273161;22;20193;-87
2023/09/09 00:25:51;;;;;;;0.63;0.63;;;20.60;46.80;;;;;;6272683;22;20208;-88
2023/09/09 00:28:20;;;;;;;0.37;0.37;;;20.50;46.80;;;;;;6274197;22;20182;-85
2023/09/09 00:30:49;;;;;;;1.03;0.53;;;20.60;47.00;;;;;;6274020;22;20244;-88
2023/09/09 00:33:17;;;;;;;0.33;0.33;;;20.50;46.90;;;;;;6272619;22;20161;-87
2023/09/09 00:35:46;;;;;;;0.30;0.30;;;20.50;47.10;;;;;;6273423;22;20173;-89
2023/09/09 00:38:15;;;;;;;0.30;0.30;;;20.50;47.20;;;;;;6245376;22;20619;-87
2023/09/09 00:41:12;;;;;;;0.20;0.20;;;20.40;47.20;;;;;;6272849;22;20168;-86
2023/09/09 00:43:41;;;;;;;0.30;0.30;;;20.40;47.30;;;;;;6275399;22;20181;-88
2023/09/09 00:46:10;;;;;;;0.30;0.30;;;20.40;47.40;;;;;;6272318;22;20172;-88
2023/09/09 00:48:39;;;;;;;0.40;0.40;;;20.40;47.50;;;;;;6275216;22;20236;-87
2023/09/09 00:51:11;;;;;;;0.30;0.30;;;20.30;47.40;;;;;;6273175;22;20173;-84
2023/09/09 00:53:41;;;;;;;0.20;0.20;;;20.30;47.50;;;;;;6273460;22;20170;-85
2023/09/09 00:56:11;;;;;;;0.33;0.27;;;20.30;47.70;;;;;;6271026;22;20165;-87
2023/09/09 00:58:40;;;;;;;0.43;0.43;;;20.30;47.70;;;;;;6274402;22;20172;-87
2023/09/09 01:01:08;;;;;;;0.50;0.40;;;20.30;47.80;;;;;;6273181;22;20162;-88
2023/09/09 01:03:37;;;;;;;0.40;0.40;;;20.20;47.80;;;;;;6274705;22;20190;-87
2023/09/09 01:06:07;;;;;;;0.50;0.50;;;20.20;47.90;;;;;;6272405;22;20181;-87
2023/09/09 01:08:37;;;;;;;0.20;0.20;;;20.20;48.10;;;;;;6275054;22;20169;-86
2023/09/09 01:11:06;;;;;;;7.83;0.67;;;20.10;48.40;;;;;;6272467;22;20166;-88
2023/09/09 01:13:37;;;;;;;0.40;0.40;;;20.10;48.50;;;;;;6273645;22;20168;-88
2023/09/09 01:16:06;;;;;;;0.50;0.50;;;20.10;48.50;;;;;;6272994;22;20615;-86
2023/09/09 01:18:35;;;;;;;0.87;0.53;;;20.00;48.60;;;;;;6274469;22;20291;-87
2023/09/09 01:21:08;;;;;;;0.77;0.67;;;20.00;48.80;;;;;;6274043;22;20244;-87
2023/09/09 01:23:39;;;;;;;0.60;0.60;;;20.00;49.10;;;;;;6246523;22;20513;-86
2023/09/09 01:26:09;;;;;;;0.30;0.30;;;20.00;49.40;;;;;;6271377;22;20162;-88
2023/09/09 01:28:38;;;;;;;0.33;0.33;;;20.00;49.40;;;;;;6273986;22;20611;-87
2023/09/09 01:31:06;;;;;;;0.47;0.47;;;19.90;49.50;;;;;;6272949;22;20268;-89
2023/09/09 01:33:35;;;;;;;0.40;0.40;;;19.90;49.70;;;;;;6274459;22;20870;-89
2023/09/09 01:36:05;;;;;;;0.23;0.23;;;19.90;49.80;;;;;;6272647;22;20627;-87
2023/09/09 01:38:35;;;;;;;0.80;0.47;;;19.90;50.20;;;;;;6274203;22;20218;-87
2023/09/09 01:41:05;;;;;;;0.40;0.40;;;19.90;50.40;;;;;;6270659;22;20162;-86
2023/09/09 01:43:33;;;;;;;0.47;0.47;;;19.80;50.50;;;;;;6271597;22;20213;-86
2023/09/09 01:46:02;;;;;;;0.40;0.40;;;19.80;50.60;;;;;;6272382;22;20162;-85
2023/09/09 01:48:31;;;;;;;0.80;0.70;;;19.80;50.70;;;;;;6273244;22;20172;-86
2023/09/09 01:51:00;;;;;;;1.03;0.73;;;19.80;50.80;;;;;;6273556;22;20176;-87
2023/09/09 01:53:28;;;;;;;0.30;0.30;;;19.80;51.00;;;;;;6275427;22;20180;-86
2023/09/09 01:55:58;;;;;;;0.87;0.53;;;19.80;51.10;;;;;;6275183;22;20173;-88
2023/09/09 01:58:28;;;;;;;0.37;0.37;;;19.80;51.00;;;;;;6276182;22;20177;-86
2023/09/09 02:00:57;;;;;;;0.40;0.30;;;19.70;51.10;;;;;;6275174;22;20162;-87
2023/09/09 02:03:26;;;;;;;1.17;0.50;;;19.70;51.10;;;;;;6276040;22;20196;-88
2023/09/09 02:05:55;;;;;;;0.30;0.30;;;19.70;51.30;;;;;;6275795;22;20629;-86
2023/09/09 02:08:24;;;;;;;0.70;0.70;;;19.70;51.50;;;;;;6275350;22;20522;-87
2023/09/09 02:10:52;;;;;;;0.20;0.20;;;19.70;51.60;;;;;;6274022;22;20247;-87
2023/09/09 02:13:21;;;;;;;0.63;0.63;;;19.70;51.60;;;;;;6277391;22;20637;-87
2023/09/09 02:15:51;;;;;;;0.30;0.30;;;19.60;51.70;;;;;;6277019;22;20170;-87
2023/09/09 02:18:20;;;;;;;0.50;0.40;;;19.60;51.70;;;;;;6278081;22;20175;-87
2023/09/09 02:20:57;;;;;;;2.00;0.90;;;19.60;52.10;;;;;;6252052;22;20169;-87
2023/09/09 02:23:27;;;;;;;0.30;0.30;;;19.60;52.10;;;;;;6281693;22;20185;-87
2023/09/09 02:25:56;;;;;;;0.27;0.27;;;19.60;52.60;;;;;;6276792;22;20161;-87
2023/09/09 02:28:26;;;;;;;0.77;0.30;;;19.60;52.50;;;;;;6274923;22;20177;-86
2023/09/09 02:30:56;;;;;;;0.30;0.30;;;19.50;52.60;;;;;;6274965;22;20176;-87
2023/09/09 02:33:25;;;;;;;0.70;0.50;;;19.50;52.60;;;;;;6276032;22;20162;-87
2023/09/09 02:35:53;;;;;;;0.40;0.40;;;19.50;52.70;;;;;;6274812;22;20208;-85
2023/09/09 02:38:22;;;;;;;1.67;0.67;;;19.50;52.80;;;;;;6277871;22;20193;-87
2023/09/09 02:40:50;;;;;;;0.30;0.30;;;19.50;52.80;;;;;;6304642;22;20161;-87
2023/09/09 02:43:19;;;;;;;0.40;0.40;;;19.50;52.90;;;;;;6306392;22;20494;-87
2023/09/09 02:45:48;;;;;;;2.23;0.83;;;19.50;53.00;;;;;;6305442;22;20164;-87
2023/09/09 02:48:19;;;;;;;0.67;0.63;;;19.50;53.10;;;;;;6279988;22;20178;-87
2023/09/09 02:50:47;;;;;;;0.77;0.63;;;19.50;53.10;;;;;;6304940;22;20173;-87
2023/09/09 02:53:16;;;;;;;0.30;0.30;;;19.40;53.10;;;;;;6304862;22;20553;-87
2023/09/09 02:55:44;;;;;;;0.47;0.47;;;19.40;53.30;;;;;;6304198;22;20168;-87
2023/09/09 02:58:14;;;;;;;1.43;0.70;;;19.40;53.40;;;;;;6306720;22;20165;-87
2023/09/09 03:00:42;;;;;;;1.83;1.50;;;19.40;53.60;;;;;;6305022;22;20175;-86
2023/09/09 03:03:11;;;;;;;1.43;0.77;;;19.40;53.60;;;;;;6304419;22;20165;-86
2023/09/09 03:05:41;;;;;;;0.57;0.53;;;19.40;54.10;;;;;;6303861;22;20502;-89
2023/09/09 03:08:09;;;;;;;3.07;0.70;;;19.40;54.00;;;;;;6305761;22;20169;-88
2023/09/09 03:10:38;;;;;;;0.30;0.30;;;19.40;54.20;;;;;;6305093;22;20176;-87
2023/09/09 03:13:06;;;;;;;0.60;0.30;;;19.40;54.10;;;;;;6304114;22;20169;-86
2023/09/09 03:15:35;;;;;;;0.40;0.40;;;19.30;54.40;;;;;;6306620;22;20169;-87
2023/09/09 03:18:05;;;;;;;1.03;0.63;;;19.30;54.70;;;;;;6274866;22;20688;-85
2023/09/09 03:20:34;;;;;;;0.50;0.50;;;19.30;54.70;;;;;;6304742;22;20219;-86
2023/09/09 03:23:04;;;;;;;0.40;0.40;;;19.30;54.80;;;;;;6306027;22;20173;-87
2023/09/09 03:25:33;;;;;;;0.43;0.43;;;19.30;55.00;;;;;;6299205;22;20189;-88
2023/09/09 03:28:02;;;;;;;0.30;0.30;;;19.20;54.90;;;;;;6276281;22;20169;-87
2023/09/09 03:30:55;;;;;;;0.77;0.60;;;19.20;54.90;;;;;;6304566;22;20172;-85
2023/09/09 03:33:24;;;;;;;0.50;0.50;;;19.20;55.10;;;;;;6304750;22;20189;-87
2023/09/09 03:35:52;;;;;;;0.30;0.30;;;19.20;55.10;;;;;;6304015;22;20244;-88
2023/09/09 03:38:22;;;;;;;0.30;0.30;;;19.20;55.10;;;;;;6305152;22;20505;-88
2023/09/09 03:40:51;;;;;;;0.70;0.70;;;19.10;55.20;;;;;;6305069;22;20199;-85
2023/09/09 03:43:20;;;;;;;1.10;0.83;;;19.10;55.20;;;;;;6304095;22;20173;-87
2023/09/09 03:45:53;;;;;;;0.20;0.20;;;19.10;55.20;;;;;;6278267;22;20177;-87
2023/09/09 03:48:22;;;;;;;0.30;0.30;;;19.10;55.30;;;;;;6305210;22;20490;-87
2023/09/09 03:50:51;;;;;;;1.13;0.93;;;19.10;55.30;;;;;;6304954;22;20183;-87
2023/09/09 03:53:20;;;;;;;0.87;0.70;;;19.10;55.30;;;;;;6304419;22;20177;-86
2023/09/09 03:55:50;;;;;;;0.20;0.20;;;19.10;55.40;;;;;;6304872;22;20169;-88
2023/09/09 03:58:19;;;;;;;0.30;0.30;;;19.10;55.50;;;;;;6302017;22;20479;-86
2023/09/09 04:00:48;;;;;;;0.73;0.60;;;19.10;55.90;;;;;;6305100;22;20568;-85
2023/09/09 04:03:16;;;;;;;0.27;0.27;;;19.10;56.00;;;;;;6277215;22;20210;-86
2023/09/09 04:05:47;;;;;;;0.20;0.20;;;19.10;56.00;;;;;;6303729;22;20197;-87
2023/09/09 04:08:16;;;;;;;0.20;0.20;;;19.00;55.90;;;;;;6306278;22;20157;-87
2023/09/09 04:10:46;;;;;;;0.50;0.50;;;19.10;56.00;;;;;;6303591;22;20184;-88
2023/09/09 04:13:17;;;;;;;0.50;0.50;;;19.10;55.90;;;;;;6301779;22;20169;-88
2023/09/09 04:15:45;;;;;;;0.30;0.30;;;19.10;55.80;;;;;;6276368;22;20164;-86
2023/09/09 04:18:14;;;;;;;0.93;0.53;;;19.10;55.90;;;;;;6305737;22;20210;-89
2023/09/09 04:20:49;;;;;;;0.73;0.60;;;19.10;55.80;;;;;;6302133;22;20210;-86
2023/09/09 04:23:18;;;;;;;0.40;0.40;;;19.10;55.80;;;;;;6304589;22;20176;-86
2023/09/09 04:25:48;;;;;;;1.60;0.60;;;19.20;55.80;;;;;;6276960;22;20193;-87
2023/09/09 04:28:17;;;;;;;1.13;1.03;;;19.20;55.80;;;;;;6304142;22;20507;-88
2023/09/09 04:30:46;;;;;;;0.33;0.33;;;19.20;55.80;;;;;;6302045;22;20689;-87
2023/09/09 04:33:18;;;;;;;0.40;0.40;;;19.20;55.70;;;;;;6304403;22;20191;-93
2023/09/09 04:38:49;;;;;;;0.20;0.20;;;19.20;56.10;;;;;;6245046;22;20206;-85
2023/09/09 04:41:18;;;;;;;1.17;0.80;;;19.20;56.10;;;;;;6240528;22;20167;-86
2023/09/09 04:43:48;;;;;;;0.90;0.50;;;19.20;56.30;;;;;;6244462;23;20253;-86
2023/09/09 04:46:17;;;;;;;0.37;0.33;;;19.30;56.30;;;;;;6242152;23;20203;-87
2023/09/09 04:48:46;;;;;;;1.53;0.67;;;19.20;56.60;;;;;;6242456;23;20174;-86
2023/09/09 04:51:14;;;;;;;0.30;0.30;;;19.30;56.70;;;;;;6240583;22;20173;-86
2023/09/09 04:53:43;;;;;;;0.57;0.57;;;19.20;56.80;;;;;;6242874;23;20621;-85
2023/09/09 04:56:13;;;;;;;0.50;0.50;;;19.30;56.80;;;;;;6242141;23;20163;-86
2023/09/09 04:58:41;;;;;;;0.63;0.60;;;19.30;56.90;;;;;;6242203;23;20167;-87
2023/09/09 05:01:11;;;;;;;0.40;0.40;;;19.30;56.80;;;;;;6243834;23;20163;-87
2023/09/09 05:03:40;;;;;;;3.10;0.80;;;19.40;56.70;;;;;;6244838;23;20157;-86
2023/09/09 05:06:09;;;;;;;0.30;0.30;;;19.40;57.10;;;;;;6217063;23;20194;-88
2023/09/09 05:08:38;;;;;;;0.40;0.40;;;19.40;56.80;;;;;;6243850;23;20245;-87
2023/09/09 05:11:07;;;;;;;0.77;0.70;;;19.40;57.00;;;;;;6243441;23;20261;-87
2023/09/09 05:13:35;;;;;;;0.50;0.50;;;19.50;57.20;;;;;;6244049;23;20173;-86
2023/09/09 05:16:05;;;;;;;0.43;0.43;;;19.50;57.40;;;;;;6243600;23;20167;-87
2023/09/09 05:18:35;;;;;;;0.40;0.40;;;19.60;57.30;;;;;;6243898;23;20502;-87
2023/09/09 05:21:04;;;;;;;0.20;0.20;;;19.60;57.20;;;;;;6243277;23;20155;-86
2023/09/09 05:23:32;;;;;;;0.63;0.30;;;19.60;57.10;;;;;;6241863;23;20167;-86
2023/09/09 05:26:01;;;;;;;0.40;0.40;;;19.70;57.10;;;;;;6242925;23;20194;-87
2023/09/09 05:28:30;;;;;;;0.63;0.43;;;19.70;57.20;;;;;;6245181;23;20163;-86
2023/09/09 05:30:59;;;;;;;0.40;0.40;;;19.80;57.20;;;;;;6243892;23;20249;-83
2023/09/09 05:33:30;;;;;;;0.40;0.40;;;19.80;57.10;;;;;;6244027;23;20171;-86
2023/09/09 05:36:01;;;;;;;1.03;0.97;;;19.90;57.20;;;;;;6243168;23;20232;-84
2023/09/09 05:38:29;;;;;;;0.20;0.20;;;19.90;57.30;;;;;;6243596;22;20667;-83
2023/09/09 05:40:58;;;;;;;0.40;0.40;;;20.00;57.20;;;;;;6242923;23;20178;-81
2023/09/09 05:43:26;;;;;;;0.80;0.63;;;20.00;57.30;;;;;;6242827;23;20194;-83
2023/09/09 05:45:56;;;;;;;0.57;0.57;;;20.10;57.50;;;;;;6241745;23;20204;-82
2023/09/09 05:48:25;;;;;;;1.10;0.70;;;20.20;57.50;;;;;;6245083;23;20908;-84
2023/09/09 05:50:55;;;;;;;0.40;0.40;;;20.20;57.50;;;;;;6243493;23;20498;-82
2023/09/09 05:53:26;;;;;;;0.70;0.70;;;20.20;57.60;;;;;;6242631;23;20601;-81
2023/09/09 05:55:54;;;;;;;1.47;0.70;;;20.30;57.70;;;;;;6239093;23;20242;-84
2023/09/09 05:58:23;;;;;;;0.67;0.67;;;20.30;57.80;;;;;;6241539;23;20225;-83
2023/09/09 06:00:52;;;;;;;1.40;1.13;;;20.40;57.70;;;;;;6243937;23;20982;-83
2023/09/09 06:03:20;;;;;;;2.50;1.30;;;20.50;57.80;;;;;;6242290;23;20486;-85
2023/09/09 06:05:49;;;;;;;2.63;1.53;;;20.50;57.80;;;;;;6243731;23;20202;-85
2023/09/09 06:08:17;;;;;;;0.60;0.60;;;20.60;57.80;;;;;;6244479;23;20170;-84
2023/09/09 06:10:47;;;;;;;3.73;1.00;;;20.70;57.80;;;;;;6243709;23;20217;-85
2023/09/09 06:13:16;;;;;;;0.60;0.50;;;20.70;57.80;;;;;;6243168;23;20166;-84
2023/09/09 06:15:44;;;;;;;0.60;0.60;;;20.80;57.70;;;;;;6242136;23;20241;-82
2023/09/09 06:18:13;;;;;;;1.37;0.97;;;20.90;57.50;;;;;;6244673;23;20166;-84
2023/09/09 06:20:47;;;;;;;1.00;0.90;;;21.00;57.40;;;;;;6243204;23;20196;-85
2023/09/09 06:23:16;;;;;;;1.17;1.07;;;21.10;57.30;;;;;;6243707;23;20236;-84
2023/09/09 06:25:49;;;;;;;1.20;0.80;;;21.10;57.10;;;;;;6241729;23;20305;-84
2023/09/09 06:28:18;;;;;;;1.53;0.90;;;21.20;57.30;;;;;;6244249;23;20166;-84
2023/09/09 06:30:50;;;;;;;0.60;0.60;;;21.40;57.20;;;;;;6242144;23;20162;-83
2023/09/09 06:33:19;;;;;;;3.73;1.00;;;21.50;57.10;;;;;;6244984;23;20497;-83
2023/09/09 06:35:51;;;;;;;0.43;0.43;;;21.60;57.10;;;;;;6243417;23;20185;-83
2023/09/09 06:38:20;;;;;;;2.63;1.07;;;21.70;56.90;;;;;;6241939;22;20204;-83
2023/09/09 06:40:50;;;;;;;1.20;1.10;;;21.80;56.80;;;;;;6239678;23;20707;-82
2023/09/09 06:43:20;;;;;;;1.45;0.98;;;21.90;56.70;;;;;;6240270;23;20516;-83
2023/09/09 06:45:48;;;;;;;0.77;0.52;;;22.00;56.60;;;;;;6239921;23;20200;-83
2023/09/09 06:48:17;;;;;;;1.15;0.80;;;22.10;56.30;;;;;;6244833;23;20170;-82
2023/09/09 06:50:47;;;;;;;0.60;0.60;;;22.20;56.30;;;;;;6244701;23;20604;-83
2023/09/09 06:53:16;;;;;;;0.65;0.65;;;22.30;56.20;;;;;;6244794;23;20184;-84
2023/09/09 06:55:46;;;;;;;0.57;0.40;;;22.50;55.90;;;;;;6242273;23;20170;-84
2023/09/09 06:58:16;;;;;;;0.43;0.43;;;22.60;55.70;;;;;;6216910;23;20178;-84
2023/09/09 07:00:50;;;;;;;0.38;0.38;;;22.70;55.40;;;;;;6241671;23;20194;-82
2023/09/09 07:03:20;;;;;;;1.08;0.98;;;22.80;55.00;;;;;;6243335;23;20406;-83
2023/09/09 07:05:49;;;;;;;0.63;0.63;;;22.90;54.20;;;;;;6243449;23;20678;-83
2023/09/09 07:08:18;;;;;;;0.50;0.50;;;22.90;53.90;;;;;;6244700;23;20188;-84
2023/09/09 07:10:53;;;;;;;11.82;1.23;;;23.00;53.50;;;;;;6243683;23;20170;-84
2023/09/09 07:13:24;;;;;;;3.17;1.35;;;23.10;53.40;;;;;;6243418;23;20166;-83
2023/09/09 07:15:53;;;;;;;0.40;0.40;;;23.20;53.00;;;;;;6242599;23;20545;-81
2023/09/09 07:18:22;;;;;;;1.08;0.30;;;23.30;53.00;;;;;;6241491;23;20170;-82
2023/09/09 07:20:51;;;;;;;0.20;0.20;;;23.40;52.80;;;;;;6243438;23;20175;-82
2023/09/09 07:23:19;;;;;;;0.70;0.55;;;23.50;52.40;;;;;;6243267;23;20174;-82
2023/09/09 07:25:48;;;;;;;0.30;0.30;;;23.60;52.50;;;;;;6242801;23;20556;-83
2023/09/09 07:28:16;;;;;;;5.00;0.40;;;23.70;51.80;;;;;;6243581;23;20177;-83
2023/09/09 07:30:46;;;;;;;0.63;0.50;;;23.70;52.00;;;;;;6245201;23;20167;-83
2023/09/09 07:33:15;;;;;;;1.77;0.57;;;23.80;51.70;;;;;;6241967;23;20167;-84
2023/09/09 07:35:43;;;;;;;2.78;0.85;;;23.90;50.80;;;;;;6240988;23;20174;-84
2023/09/09 07:38:12;;;;;;;0.65;0.43;;;24.00;50.80;;;;;;6237232;22;20189;-84
2023/09/09 07:40:41;;;;;;;0.30;0.30;;;24.00;50.90;;;;;;6246764;22;20170;-82
2023/09/09 07:43:10;;;;;;;0.45;0.40;;;24.10;50.70;;;;;;6273471;22;20653;-84
2023/09/09 07:45:38;;;;;;;0.20;0.20;;;24.20;50.50;;;;;;6272212;22;20169;-84
2023/09/09 07:48:11;;;;;;;1.00;0.60;;;24.30;50.30;;;;;;6271957;22;20162;-82
2023/09/09 07:50:39;;;;;;;1.42;0.60;;;24.40;49.60;;;;;;6274236;22;20168;-85
2023/09/09 07:53:08;;;;;;;0.60;0.60;;;24.50;49.10;;;;;;6272730;22;20169;-84
2023/09/09 07:55:37;;;;;;;0.30;0.30;;;24.50;48.50;;;;;;6271869;22;20484;-84
2023/09/09 07:58:05;;;;;;;0.73;0.50;;;24.60;48.40;;;;;;6272392;22;20166;-85
2023/09/09 08:00:36;;;;;;;0.55;0.55;;;24.70;48.30;;;;;;6270460;22;20166;-85
2023/09/09 08:03:06;;;;;;;0.73;0.40;;;24.80;48.00;;;;;;6271077;22;20642;-85
2023/09/09 08:05:37;;;;;;;0.52;0.52;;;24.80;48.20;;;;;;6273210;22;20233;-84
2023/09/09 08:08:06;;;;;;;0.40;0.30;;;24.90;48.10;;;;;;6271989;22;20598;-84
2023/09/09 08:10:35;;;;;;;0.90;0.43;;;25.00;47.60;;;;;;6271494;22;20172;-84
2023/09/09 08:13:04;;;;;;;0.30;0.30;;;25.10;47.20;;;;;;6272510;22;20212;-84
2023/09/09 08:15:33;;;;;;;0.20;0.20;;;25.10;46.40;;;;;;6273427;22;20200;-83
2023/09/09 08:18:08;;;;;;;0.30;0.30;;;25.20;46.50;;;;;;6271356;22;20244;-85
2023/09/09 08:20:39;;;;;;;0.20;0.20;;;25.20;46.10;;;;;;6274202;22;20169;-84
2023/09/09 08:23:07;;;;;;;0.30;0.30;;;25.30;46.20;;;;;;6272079;22;20154;-84
2023/09/09 08:25:36;;;;;;;0.38;0.30;;;25.40;45.90;;;;;;6271154;22;20550;-85
2023/09/09 08:28:05;;;;;;;0.47;0.47;;;25.50;45.50;;;;;;6272579;22;20647;-85
2023/09/09 08:30:34;;;;;;;0.28;0.28;;;25.60;45.80;;;;;;6269923;22;20169;-84
2023/09/09 08:33:03;;;;;;;0.20;0.20;;;25.60;43.60;;;;;;6273937;22;20170;-87
2023/09/09 08:35:31;;;;;;;0.28;0.28;;;25.70;44.10;;;;;;6273637;22;20162;-84
2023/09/09 08:38:02;;;;;;;0.22;0.22;;;25.70;44.00;;;;;;6272186;22;20534;-85
2023/09/09 08:40:35;;;;;;;0.35;0.35;;;25.80;42.80;;;;;;6272952;22;20158;-85
2023/09/09 08:43:15;;;;;;;0.30;0.30;;;25.80;42.80;;;;;;6272150;22;20158;-85
2023/09/09 08:45:54;;;;;;;0.32;0.32;;;25.90;43.10;;;;;;6272129;22;20531;-84
2023/09/09 08:48:25;;;;;;;0.20;0.20;;;26.00;41.90;;;;;;6273264;22;20257;-85
2023/09/09 08:50:57;;;;;;;0.20;0.20;;;26.00;42.00;;;;;;6272733;22;20200;-83
2023/09/09 08:53:29;;;;;;;0.20;0.20;;;26.10;42.40;;;;;;6272773;22;20237;-84
2023/09/09 08:55:58;;;;;;;0.20;0.20;;;26.10;41.60;;;;;;6273810;22;20224;-84
2023/09/09 08:58:27;;;;;;;1.05;0.70;;;26.20;41.80;;;;;;6274442;22;20208;-86
2023/09/09 09:00:56;;;;;;;0.30;0.30;;;26.20;41.00;;;;;;6271401;22;20176;-84
2023/09/09 09:03:26;;;;;;;1.15;0.50;;;26.20;40.50;;;;;;6273158;22;20227;-84
2023/09/09 09:05:55;;;;;;;0.13;0.13;;;26.30;41.30;;;;;;6274196;22;20212;-83
2023/09/09 09:08:24;;;;;;;0.50;0.50;;;26.40;41.90;;;;;;6271042;22;20199;-85
2023/09/09 09:10:54;;;;;;;0.20;0.20;;;26.50;42.20;;;;;;6268690;22;20178;-86
2023/09/09 09:13:23;;;;;;;1.65;0.50;;;26.60;42.10;;;;;;6271758;22;20222;-85
2023/09/09 09:15:51;;;;;;;0.75;0.30;;;26.60;42.40;;;;;;6271287;22;20162;-82
2023/09/09 09:18:20;;;;;;;0.52;0.52;;;26.70;42.60;;;;;;6272046;22;20178;-84
2023/09/09 09:20:49;;;;;;;0.40;0.40;;;26.80;42.20;;;;;;6270767;22;20611;-82
2023/09/09 09:23:18;;;;;;;0.15;0.15;;;26.80;41.40;;;;;;6272431;22;20166;-85
2023/09/09 09:25:48;;;;;;;0.25;0.25;;;26.80;41.80;;;;;;6271577;22;20185;-84
2023/09/09 09:28:18;;;;;;;0.52;0.52;;;26.90;41.60;;;;;;6273683;22;20281;-84
2023/09/09 09:30:47;;;;;;;0.30;0.30;;;27.00;41.00;;;;;;6273266;22;20645;-86
2023/09/09 09:33:16;;;;;;;0.20;0.20;;;27.00;40.80;;;;;;6273412;22;20170;-85
2023/09/09 09:35:45;;;;;;;0.20;0.20;;;27.10;41.20;;;;;;6274472;22;20257;-84
2023/09/09 09:38:17;;;;;;;0.20;0.20;;;27.10;41.30;;;;;;6273173;22;20264;-85
2023/09/09 09:40:46;;;;;;;1.27;0.15;;;27.10;41.30;;;;;;6269129;22;20177;-86
2023/09/09 09:43:19;;;;;;;0.15;0.15;;;27.20;41.40;;;;;;6269622;22;20607;-85
2023/09/09 09:45:48;;;;;;;0.30;0.30;;;27.30;41.50;;;;;;6273859;22;20618;-86
2023/09/09 09:48:26;;;;;;;0.17;0.17;;;27.30;41.60;;;;;;6273535;22;20225;-85
2023/09/09 09:50:55;;;;;;;0.30;0.30;;;27.40;41.20;;;;;;6272141;22;20162;-84
2023/09/09 09:53:25;;;;;;;2.33;0.35;;;27.40;41.30;;;;;;6272899;22;20560;-85
2023/09/09 09:55:55;;;;;;;0.20;0.20;;;27.50;40.20;;;;;;6274370;22;20235;-84
2023/09/09 09:58:28;;;;;;;1.23;0.40;;;27.40;39.20;;;;;;6272067;22;20615;-84
2023/09/09 10:01:00;;;;;;;0.20;0.20;;;27.50;39.40;;;;;;6272553;22;20154;-83
2023/09/09 10:03:39;;;;;;;0.20;0.20;;;27.60;39.90;;;;;;6273087;22;20162;-84
2023/09/09 10:06:12;;;;;;;0.20;0.20;;;27.70;40.40;;;;;;6273713;22;20158;-82
2023/09/09 10:09:03;;;;;;;0.38;0.38;;;27.70;40.30;;;;;;6273171;22;20189;-85
2023/09/09 10:11:38;;;;;;;0.20;0.20;;;27.70;39.30;;;;;;6274236;22;20188;-84
2023/09/09 10:14:22;;;;;;;0.73;0.55;;;27.80;38.90;;;;;;6275715;22;20192;-84
2023/09/09 10:16:56;;;;;;;0.70;0.47;;;27.80;39.40;;;;;;6274734;22;20193;-82
2023/09/09 10:19:29;;;;;;;0.30;0.30;;;27.90;39.80;;;;;;6276611;22;20185;-86
2023/09/09 10:22:05;;;;;;;0.47;0.40;;;27.90;39.80;;;;;;6272810;22;20169;-86
2023/09/09 10:24:36;;;;;;;0.30;0.25;;;28.00;39.70;;;;;;6271740;22;20192;-82
2023/09/09 10:27:05;;;;;;;0.43;0.43;;;28.00;39.90;;;;;;6274034;22;20158;-82
2023/09/09 10:29:38;;;;;;;0.40;0.32;;;28.10;39.90;;;;;;6272856;22;20165;-83
2023/09/09 10:32:11;;;;;;;0.30;0.30;;;28.10;39.50;;;;;;6272714;22;20284;-87
2023/09/09 10:34:57;;;;;;;0.30;0.30;;;28.20;39.70;;;;;;6276890;22;20157;-87
2023/09/09 10:37:33;;;;;;;0.30;0.20;;;28.30;39.50;;;;;;6275440;22;20529;-85
2023/09/09 10:40:32;;;;;;;0.20;0.20;;;28.30;40.00;;;;;;6276220;22;20168;-87
2023/09/09 10:43:00;;;;;;;0.77;0.77;;;28.40;40.10;;;;;;6269280;22;20252;-86
2023/09/09 10:45:32;;;;;;;0.40;0.40;;;28.50;40.20;;;;;;6274650;22;20183;-85
2023/09/09 10:48:04;;;;;;;4.38;0.30;;;28.50;39.70;;;;;;6274844;22;20273;-87
2023/09/09 10:50:40;;;;;;;2.47;0.55;;;28.60;39.90;;;;;;6276341;22;20157;-86
2023/09/09 10:53:15;;;;;;;1.40;0.52;;;28.70;40.10;;;;;;6292136;22;20162;-85
2023/09/09 10:55:44;;;;;;;0.30;0.30;;;28.70;40.00;;;;;;6290183;22;20161;-85
2023/09/09 10:58:17;;;;;;;1.08;0.68;;;28.70;40.20;;;;;;6293966;22;20174;-86
2023/09/09 11:00:51;;;;;;;1.33;0.90;;;28.80;39.70;;;;;;6291720;22;20155;-85
2023/09/09 11:03:36;;;;;;;0.30;0.30;;;28.80;39.60;;;;;;6289401;22;20169;-86
2023/09/09 11:06:06;;;;;;;1.13;0.88;;;28.90;39.40;;;;;;6291229;22;20154;-87
2023/09/09 11:08:46;;;;;;;0.95;0.82;;;28.90;38.90;;;;;;6277390;22;20514;-86
2023/09/09 11:11:16;;;;;;;1.25;0.55;;;28.90;38.80;;;;;;6276345;22;20161;-85
2023/09/09 11:13:51;;;;;;;0.28;0.28;;;29.00;39.10;;;;;;6274634;22;20192;-86
2023/09/09 11:16:30;;;;;;;0.85;0.50;;;29.10;39.30;;;;;;6273382;22;20222;-85
2023/09/09 11:19:03;;;;;;;1.27;0.30;;;29.10;39.30;;;;;;6272993;22;20169;-83
2023/09/09 11:21:34;;;;;;;0.40;0.30;;;29.10;39.50;;;;;;6274421;22;20189;-87
2023/09/09 11:24:05;;;;;;;0.28;0.28;;;29.20;38.90;;;;;;6274858;22;20227;-87
2023/09/09 11:26:38;;;;;;;0.15;0.15;;;29.20;38.80;;;;;;6275061;22;20154;-86
2023/09/09 11:29:07;;;;;;;1.60;1.05;;;29.20;38.90;;;;;;6273478;22;20197;-85
2023/09/09 11:31:50;;;;;;;0.30;0.30;;;29.30;38.90;;;;;;6274432;22;20237;-84
2023/09/09 11:34:28;;;;;;;0.82;0.30;;;29.40;38.90;;;;;;6273569;22;20554;-85
2023/09/09 11:36:57;;;;;;;0.25;0.25;;;29.40;38.70;;;;;;6271175;22;20902;-85
2023/09/09 11:39:25;;;;;;;0.40;0.40;;;29.50;38.80;;;;;;6270035;22;20164;-85
2023/09/09 11:41:54;;;;;;;0.20;0.20;;;29.50;38.90;;;;;;6271000;22;20201;-85
2023/09/09 11:44:22;;;;;;;0.20;0.20;;;29.50;38.60;;;;;;6270545;22;20338;-85
2023/09/09 11:46:53;;;;;;;0.50;0.50;;;29.60;38.80;;;;;;6270146;22;20170;-87
2023/09/09 11:49:21;;;;;;;0.60;0.50;;;29.60;39.40;;;;;;6273080;22;20189;-85
2023/09/09 11:51:50;;;;;;;0.63;0.63;;;29.70;38.50;;;;;;6273861;22;20170;-87
2023/09/09 11:54:22;;;;;;;0.30;0.30;;;29.70;38.30;;;;;;6274430;22;20176;-88
2023/09/09 11:56:50;;;;;;;0.82;0.40;;;29.70;37.60;;;;;;6273227;22;20166;-88
2023/09/09 11:59:19;;;;;;;0.20;0.20;;;29.70;37.50;;;;;;6275001;22;20170;-88
2023/09/09 12:01:48;;;;;;;0.57;0.35;;;29.80;37.90;;;;;;6273177;22;20168;-86
2023/09/09 12:04:18;;;;;;;0.57;0.30;;;29.80;38.00;;;;;;6272603;22;20542;-89
2023/09/09 12:06:50;;;;;;;1.00;0.82;;;29.80;37.80;;;;;;6273726;22;20169;-87
2023/09/09 12:09:19;;;;;;;1.58;0.73;;;29.90;37.80;;;;;;6274858;22;20643;-87
2023/09/09 12:11:48;;;;;;;0.30;0.30;;;30.00;38.10;;;;;;6272773;22;20690;-87
2023/09/09 12:14:17;;;;;;;0.30;0.30;;;30.00;37.90;;;;;;6273096;22;20165;-86
2023/09/09 12:16:46;;;;;;;0.70;0.55;;;30.10;38.00;;;;;;6275679;22;20512;-88
2023/09/09 12:19:16;;;;;;;2.50;0.50;;;30.20;38.00;;;;;;6270809;22;20938;-85
2023/09/09 12:21:46;;;;;;;1.50;0.40;;;30.20;37.80;;;;;;6271980;22;20189;-86
2023/09/09 12:24:15;;;;;;;0.40;0.40;;;30.20;37.20;;;;;;6273579;22;20168;-85
2023/09/09 12:26:52;;;;;;;0.20;0.20;;;30.20;36.90;;;;;;6273521;22;20214;-87
2023/09/09 12:29:21;;;;;;;0.95;0.90;;;30.20;37.20;;;;;;6274784;22;20193;-87
2023/09/09 12:31:54;;;;;;;0.40;0.40;;;30.20;37.00;;;;;;6275224;22;20166;-87
2023/09/09 12:34:26;;;;;;;0.45;0.45;;;30.30;37.10;;;;;;6274336;22;20154;-86
2023/09/09 12:36:58;;;;;;;0.30;0.30;;;30.30;37.30;;;;;;6274777;22;20162;-87
2023/09/09 12:39:28;;;;;;;0.20;0.20;;;30.40;37.30;;;;;;6275091;22;20603;-86
2023/09/09 12:42:01;;;;;;;0.80;0.32;;;30.40;37.60;;;;;;6274958;22;20173;-86
2023/09/09 12:44:32;;;;;;;0.20;0.20;;;30.40;37.60;;;;;;6273460;22;20174;-85
2023/09/09 12:47:05;;;;;;;0.40;0.40;;;30.40;37.10;;;;;;6271345;22;20154;-86
2023/09/09 12:49:35;;;;;;;0.28;0.28;;;30.40;36.90;;;;;;6273560;22;20228;-86
2023/09/09 12:52:04;;;;;;;1.20;0.68;;;30.50;36.90;;;;;;6273684;22;20512;-86
2023/09/09 12:54:32;;;;;;;0.40;0.40;;;30.50;37.10;;;;;;6272821;22;20170;-86
2023/09/09 12:57:01;;;;;;;0.40;0.40;;;30.40;35.90;;;;;;6274394;22;20205;-88
2023/09/09 12:59:30;;;;;;;0.45;0.40;;;30.40;35.60;;;;;;6247488;22;20172;-87
2023/09/09 13:01:58;;;;;;;0.32;0.32;;;30.40;35.70;;;;;;6273509;22;20170;-85
2023/09/09 13:04:27;;;;;;;0.50;0.50;;;30.50;36.10;;;;;;6274152;22;20180;-86
2023/09/09 13:06:56;;;;;;;0.20;0.20;;;30.50;36.30;;;;;;6274118;22;20541;-86